Crystal Beach, Canada
Current Conditions -  °F | °C
As of 5:00 PM on Thursday 27 Nov 2014 (Local Time) from CYQA Reporting Station
Overcast Overcast  
Wind Chill: 16°   Ceiling: 7500
Heat Index: 25°   Visibility: 9mi
Dew Point: 18°   Wind: 8mph
Humidity: 74%   Direction: 330°NNW
Pressure: 30.05"   Gusts: NA
Location:  45.05°N, 79.4°W
Report Text: CYQA 272200Z AUTO 33007KT 9SM BKN075 OVC096 M04/M08 A3005 RMK SLP195
Loading
Personal Weather Stations






























Interactive Weather Map New forecast layout! Learn more

10-Day Weather Forecast

Advertisements
Track Severe Weather on mobile